Terminal Aerodrome Forecast
Issued by NWS

Home | Current Version | Previous Version | Text Only | Print | Product List | Glossary On
Versions: 1 2 3 4 5 6 7 8 9 10 11 12 13 14 15 16 17 18 19 20 21 22 23 24 25 26
039
FTAK31 PAFA 061427 AAA
TAFAUN
TAF AMD
PAUN 061427Z 0614/0712 08019G24KT P6SM VCSH OVC070
     FM061800 09020KT 4SM -SHSN BR OVC025
     FM070900 09017KT 4SM -SHSN BR OVC015=

USA.gov is the U.S. government's official web portal to all federal, state and local government web resources and services.